createdAt,value
2022-07-27T00:00:47.357Z,94.68
2022-07-27T00:03:14.101Z,95.12
2022-07-27T00:05:40.896Z,95.41
2022-07-27T00:08:07.843Z,95.23
2022-07-27T00:10:35.943Z,95.47
2022-07-27T00:13:03.353Z,95.20
2022-07-27T00:15:30.198Z,95.71
2022-07-27T00:18:00.717Z,95.86
2022-07-27T00:20:31.741Z,95.82
2022-07-27T00:22:59.632Z,95.60
2022-07-27T00:25:30.067Z,95.35
2022-07-27T00:27:59.563Z,95.16
2022-07-27T00:30:26.855Z,95.39
2022-07-27T00:32:53.568Z,95.41
2022-07-27T00:35:20.349Z,95.36
2022-07-27T00:37:46.992Z,95.54
2022-07-27T00:40:14.208Z,95.22
2022-07-27T00:42:40.940Z,95.00
2022-07-27T00:45:08.237Z,94.91
2022-07-27T00:47:34.957Z,94.97
2022-07-27T00:50:03.388Z,95.29
2022-07-27T00:52:30.748Z,94.89
2022-07-27T00:54:58.960Z,94.77
2022-07-27T00:57:28.233Z,94.29
2022-07-27T00:59:54.950Z,94.57
2022-07-27T01:02:23.006Z,95.06
2022-07-27T01:04:53.924Z,95.43
2022-07-27T01:07:24.498Z,95.28
2022-07-27T01:09:57.584Z,95.47
2022-07-27T01:12:32.410Z,95.21
2022-07-27T01:14:59.856Z,94.96
2022-07-27T01:17:30.920Z,94.79
2022-07-27T01:19:59.284Z,94.69
2022-07-27T01:22:26.437Z,94.77
2022-07-27T01:24:53.316Z,94.98
2022-07-27T01:27:19.915Z,95.04
2022-07-27T01:29:46.613Z,95.19
2022-07-27T01:32:13.546Z,95.30
2022-07-27T01:34:40.194Z,95.06
2022-07-27T01:37:06.971Z,94.86
2022-07-27T01:39:34.181Z,94.71
2022-07-27T01:42:01.703Z,94.74
2022-07-27T01:44:28.368Z,94.64
2022-07-27T01:46:55.354Z,94.68
2022-07-27T01:49:22.407Z,94.52
2022-07-27T01:51:49.103Z,94.39
2022-07-27T01:54:15.883Z,94.49
2022-07-27T01:56:42.616Z,94.76
2022-07-27T01:59:16.199Z,94.76
2022-07-27T02:01:44.240Z,94.53
2022-07-27T02:04:10.960Z,94.55
2022-07-27T02:06:37.565Z,94.68
2022-07-27T02:09:04.264Z,95.47
2022-07-27T02:11:49.763Z,96.37
2022-07-27T02:14:16.698Z,97.00
2022-07-27T02:16:43.570Z,96.57
2022-07-27T02:19:11.137Z,96.46
2022-07-27T02:21:39.012Z,96.43
2022-07-27T02:24:06.042Z,96.01
2022-07-27T02:26:32.689Z,95.87
2022-07-27T02:28:59.286Z,96.41
2022-07-27T02:31:26.019Z,97.19
2022-07-27T02:33:56.564Z,97.66
2022-07-27T02:36:23.245Z,97.47
2022-07-27T02:38:49.837Z,97.73
2022-07-27T02:41:17.104Z,98.27
2022-07-27T02:43:43.731Z,98.75
2022-07-27T02:46:10.370Z,99.27
2022-07-27T02:48:37.180Z,99.44
2022-07-27T02:51:04.222Z,99.53
2022-07-27T02:53:31.125Z,99.50
2022-07-27T02:55:58.151Z,99.53
2022-07-27T02:58:24.854Z,99.91
2022-07-27T03:00:54.925Z,100.00
2022-07-27T03:03:24.914Z,100.00
2022-07-27T03:06:03.107Z,100.00
2022-07-27T03:08:29.816Z,100.00
2022-07-27T03:10:56.430Z,100.00
2022-07-27T03:13:23.028Z,100.00
2022-07-27T03:15:49.717Z,100.00
2022-07-27T03:18:16.408Z,100.00
2022-07-27T03:20:42.973Z,100.00
2022-07-27T03:23:09.556Z,100.00
2022-07-27T03:25:36.425Z,100.00
2022-07-27T03:28:04.353Z,100.00
2022-07-27T03:30:32.183Z,100.00
2022-07-27T03:32:59.096Z,100.00
2022-07-27T03:35:25.761Z,100.00
2022-07-27T03:37:52.596Z,100.00
2022-07-27T03:40:19.178Z,100.00
2022-07-27T03:42:45.890Z,99.55
2022-07-27T03:45:12.485Z,99.63
2022-07-27T03:47:39.038Z,100.00
2022-07-27T03:50:06.116Z,99.89
2022-07-27T03:52:32.690Z,99.72
2022-07-27T03:54:59.287Z,99.73
2022-07-27T03:57:25.819Z,100.00
2022-07-27T03:59:52.426Z,100.00
2022-07-27T04:02:19.076Z,100.00
2022-07-27T04:04:45.666Z,100.00
2022-07-27T04:07:12.206Z,100.00
2022-07-27T04:09:39.514Z,100.00
2022-07-27T04:12:08.427Z,100.00
2022-07-27T04:14:35.833Z,100.00
2022-07-27T04:17:02.447Z,100.00
2022-07-27T04:19:29.096Z,100.00
2022-07-27T04:21:55.631Z,100.00
2022-07-27T04:24:22.301Z,100.00
2022-07-27T04:26:48.887Z,100.00
2022-07-27T04:29:20.149Z,100.00
2022-07-27T04:31:47.695Z,100.00
2022-07-27T04:34:14.295Z,100.00
2022-07-27T04:36:40.932Z,100.00
2022-07-27T04:39:08.072Z,100.00
2022-07-27T04:41:34.784Z,100.00
2022-07-27T04:44:01.498Z,100.00
2022-07-27T04:46:29.864Z,100.00
2022-07-27T04:48:56.875Z,100.00
2022-07-27T04:51:23.582Z,100.00
2022-07-27T04:53:52.809Z,100.00
2022-07-27T04:56:24.293Z,100.00
2022-07-27T04:58:50.822Z,100.00
2022-07-27T05:01:17.481Z,100.00
2022-07-27T05:03:44.297Z,100.00
2022-07-27T05:06:10.917Z,100.00
2022-07-27T05:08:37.459Z,100.00
2022-07-27T05:11:04.011Z,100.00
2022-07-27T05:13:30.548Z,100.00
2022-07-27T05:15:57.091Z,100.00
2022-07-27T05:18:24.368Z,100.00
2022-07-27T05:20:51.054Z,100.00
2022-07-27T05:23:17.916Z,100.00
2022-07-27T05:25:44.564Z,100.00
2022-07-27T05:28:14.255Z,100.00
2022-07-27T05:30:41.173Z,100.00
2022-07-27T05:33:07.940Z,100.00
2022-07-27T05:35:34.508Z,100.00
2022-07-27T05:38:01.027Z,100.00
2022-07-27T05:40:27.798Z,100.00
2022-07-27T05:42:54.380Z,100.00
2022-07-27T05:45:21.190Z,100.00
2022-07-27T05:47:47.851Z,100.00
2022-07-27T05:50:15.722Z,100.00
2022-07-27T05:52:43.590Z,100.00
2022-07-27T05:55:10.837Z,100.00
2022-07-27T05:57:38.066Z,100.00
2022-07-27T06:00:06.912Z,100.00
2022-07-27T06:02:33.730Z,100.00
2022-07-27T06:05:00.265Z,100.00
2022-07-27T06:07:45.164Z,100.00
2022-07-27T06:10:16.970Z,100.00
2022-07-27T06:12:44.738Z,100.00
2022-07-27T06:15:12.467Z,100.00
2022-07-27T06:17:39.315Z,100.00
2022-07-27T06:20:07.337Z,100.00
2022-07-27T06:22:43.569Z,100.00
2022-07-27T06:25:10.117Z,100.00
2022-07-27T06:27:37.978Z,100.00
2022-07-27T06:30:05.763Z,100.00
2022-07-27T06:32:32.495Z,100.00
2022-07-27T06:35:04.481Z,100.00
2022-07-27T06:37:31.432Z,100.00
2022-07-27T06:39:59.411Z,100.00
2022-07-27T06:42:25.975Z,100.00
2022-07-27T06:44:52.651Z,100.00
2022-07-27T06:47:19.440Z,100.00
2022-07-27T06:49:46.359Z,100.00
2022-07-27T06:52:12.880Z,100.00
2022-07-27T06:54:39.724Z,100.00
2022-07-27T06:57:06.351Z,100.00
2022-07-27T06:59:42.597Z,100.00
2022-07-27T07:02:10.262Z,100.00
2022-07-27T07:04:36.849Z,100.00
2022-07-27T07:07:07.007Z,100.00
2022-07-27T07:09:34.598Z,100.00
2022-07-27T07:12:02.448Z,100.00
2022-07-27T07:14:29.213Z,100.00
2022-07-27T07:16:55.739Z,100.00
2022-07-27T07:19:22.559Z,100.00
2022-07-27T07:21:49.240Z,100.00
2022-07-27T07:24:15.813Z,100.00
2022-07-27T07:26:42.403Z,100.00
2022-07-27T07:29:09.515Z,100.00
2022-07-27T07:31:36.541Z,100.00
2022-07-27T07:34:03.651Z,100.00
2022-07-27T07:36:30.256Z,100.00
2022-07-27T07:38:56.900Z,100.00
2022-07-27T07:41:23.819Z,100.00
2022-07-27T07:43:50.892Z,100.00
2022-07-27T07:46:17.538Z,100.00
2022-07-27T07:48:44.331Z,97.09
2022-07-27T07:51:11.384Z,95.46
2022-07-27T07:53:41.610Z,93.94
2022-07-27T07:56:08.793Z,92.89
2022-07-27T07:58:35.440Z,91.80
2022-07-27T08:01:01.984Z,91.57
2022-07-27T08:03:28.649Z,91.37
2022-07-27T08:05:55.244Z,92.10
2022-07-27T08:08:24.857Z,92.15
2022-07-27T08:10:51.832Z,91.24
2022-07-27T08:13:22.189Z,90.08
2022-07-27T08:15:49.862Z,89.17
2022-07-27T08:18:16.547Z,87.65
2022-07-27T08:20:43.228Z,85.47
2022-07-27T08:23:09.951Z,86.00
2022-07-27T08:25:39.262Z,85.13
2022-07-27T08:28:07.513Z,85.30
2022-07-27T08:30:34.908Z,84.74
2022-07-27T08:33:04.217Z,84.27
2022-07-27T08:35:31.864Z,84.18
2022-07-27T08:37:59.480Z,83.63
2022-07-27T08:40:44.067Z,83.38
2022-07-27T08:43:20.158Z,81.53
2022-07-27T08:45:55.275Z,78.84
2022-07-27T08:48:24.362Z,79.68
2022-07-27T08:50:51.154Z,78.16
2022-07-27T08:53:18.555Z,78.68
2022-07-27T08:55:47.454Z,78.66
2022-07-27T08:58:14.992Z,75.09
2022-07-27T09:00:47.149Z,75.32
2022-07-27T09:03:19.629Z,73.76
2022-07-27T09:05:52.518Z,72.90
2022-07-27T09:08:31.379Z,72.50
2022-07-27T09:10:59.802Z,71.96
2022-07-27T09:13:27.880Z,70.30
2022-07-27T09:18:45.994Z,71.02
2022-07-27T09:21:18.675Z,70.50
2022-07-27T09:23:50.996Z,71.31
2022-07-27T09:26:33.232Z,68.59
2022-07-27T09:29:03.690Z,67.60
2022-07-27T09:31:31.381Z,68.17
2022-07-27T09:34:01.382Z,66.75
2022-07-27T09:36:30.300Z,67.60
2022-07-27T09:39:12.970Z,68.27
2022-07-27T09:41:48.667Z,67.82
2022-07-27T09:44:43.878Z,66.76
2022-07-27T09:47:21.703Z,67.88
2022-07-27T09:49:48.567Z,70.04
2022-07-27T09:52:28.715Z,67.05
2022-07-27T09:55:02.595Z,66.21
2022-07-27T09:57:29.162Z,65.72
2022-07-27T10:00:13.736Z,67.78
2022-07-27T10:02:40.677Z,67.49
2022-07-27T10:05:07.809Z,64.37
2022-07-27T10:07:34.673Z,63.60
2022-07-27T10:10:02.944Z,64.80
2022-07-27T10:12:30.136Z,66.21
2022-07-27T10:14:56.800Z,65.24
2022-07-27T10:17:24.133Z,64.29
2022-07-27T10:19:51.166Z,65.19
2022-07-27T10:22:56.695Z,65.16
2022-07-27T10:25:24.704Z,62.97
2022-07-27T10:28:13.190Z,60.94
2022-07-27T10:30:39.864Z,60.64
2022-07-27T10:33:33.342Z,61.20
2022-07-27T10:36:02.278Z,61.78
2022-07-27T10:38:44.569Z,61.21
2022-07-27T10:41:41.390Z,62.12
2022-07-27T10:44:23.826Z,61.74
2022-07-27T10:46:56.578Z,61.92
2022-07-27T10:49:23.200Z,63.70
2022-07-27T10:51:50.659Z,62.98
2022-07-27T10:54:21.491Z,62.04
2022-07-27T10:56:50.793Z,61.31
2022-07-27T11:00:08.722Z,60.81
2022-07-27T11:02:42.167Z,61.61
2022-07-27T11:05:42.637Z,60.49
2022-07-27T11:08:35.501Z,60.49
2022-07-27T11:10:45.843Z,62.54
2022-07-27T11:13:13.240Z,62.82
2022-07-27T11:15:40.144Z,63.16
2022-07-27T11:18:06.742Z,64.78
2022-07-27T11:20:33.286Z,65.66
2022-07-27T11:23:48.866Z,65.63
2022-07-27T11:26:00.232Z,65.86
2022-07-27T11:28:31.055Z,66.38
2022-07-27T11:30:58.789Z,66.98
2022-07-27T11:33:25.768Z,65.58
2022-07-27T11:36:01.329Z,66.20
2022-07-27T11:38:28.822Z,66.87
2022-07-27T11:40:57.055Z,65.75
2022-07-27T11:43:45.109Z,64.45
2022-07-27T11:46:27.668Z,64.48
2022-07-27T11:49:07.130Z,64.51
2022-07-27T11:51:37.067Z,63.45
2022-07-27T11:54:05.138Z,63.94
2022-07-27T11:56:34.297Z,63.17
2022-07-27T11:59:09.275Z,62.95
2022-07-27T12:01:43.335Z,63.55
2022-07-27T12:04:13.181Z,63.71
2022-07-27T12:07:07.704Z,63.40
2022-07-27T12:09:39.094Z,63.97
2022-07-27T12:12:14.350Z,61.82
2022-07-27T12:14:46.357Z,61.32
2022-07-27T12:17:14.508Z,61.36
2022-07-27T12:19:42.045Z,61.56
2022-07-27T12:22:09.541Z,62.71
2022-07-27T12:24:41.248Z,62.54
2022-07-27T12:27:13.930Z,61.58
2022-07-27T12:29:58.687Z,61.45
2022-07-27T12:32:26.853Z,58.23
2022-07-27T12:34:54.910Z,59.57
2022-07-27T12:37:22.138Z,59.15
2022-07-27T12:39:49.805Z,58.63
2022-07-27T12:42:16.695Z,55.97
2022-07-27T12:44:44.981Z,56.17
2022-07-27T12:47:30.676Z,56.65
2022-07-27T12:50:07.922Z,53.58
2022-07-27T12:52:36.697Z,53.01
2022-07-27T12:55:04.777Z,53.88
2022-07-27T12:57:53.878Z,54.65
2022-07-27T13:00:19.624Z,54.92
2022-07-27T13:02:46.665Z,56.47
2022-07-27T13:05:15.284Z,56.71
2022-07-27T13:07:44.054Z,57.92
2022-07-27T13:10:11.366Z,58.53
2022-07-27T13:12:38.946Z,57.18
2022-07-27T13:15:08.128Z,57.08
2022-07-27T13:17:35.961Z,57.01
2022-07-27T13:20:04.079Z,55.62
2022-07-27T13:22:30.967Z,55.47
2022-07-27T13:24:57.497Z,56.49
2022-07-27T13:27:24.152Z,57.65
2022-07-27T13:29:50.780Z,56.63
2022-07-27T13:32:18.316Z,55.62
2022-07-27T13:34:45.477Z,54.65
2022-07-27T13:37:12.179Z,54.67
2022-07-27T13:39:38.982Z,54.60
2022-07-27T13:42:05.642Z,55.53
2022-07-27T13:44:59.381Z,54.44
2022-07-27T13:47:18.946Z,55.81
2022-07-27T13:49:45.489Z,54.33
2022-07-27T13:52:14.906Z,53.23
2022-07-27T13:54:42.115Z,53.24
2022-07-27T13:57:08.732Z,52.98
2022-07-27T13:59:35.274Z,53.66
2022-07-27T14:02:01.961Z,54.71
2022-07-27T14:04:29.958Z,54.39
2022-07-27T14:06:58.858Z,53.99
2022-07-27T14:09:45.364Z,53.48
2022-07-27T14:12:12.064Z,54.28
2022-07-27T14:14:38.994Z,54.93
2022-07-27T14:17:06.949Z,55.30
2022-07-27T14:19:36.124Z,55.99
2022-07-27T14:22:03.016Z,54.91
2022-07-27T14:24:30.923Z,54.14
2022-07-27T14:26:59.129Z,53.41
2022-07-27T14:29:25.707Z,52.73
2022-07-27T14:31:52.364Z,53.06
2022-07-27T14:34:18.899Z,54.55
2022-07-27T14:36:45.450Z,54.97
2022-07-27T14:39:12.381Z,54.67
2022-07-27T14:41:44.145Z,54.54
2022-07-27T14:44:10.970Z,54.77
2022-07-27T14:46:37.545Z,53.71
2022-07-27T14:49:06.047Z,53.03
2022-07-27T14:51:33.395Z,51.72
2022-07-27T14:54:00.152Z,51.90
2022-07-27T14:56:27.012Z,52.01
2022-07-27T14:58:53.870Z,52.29
2022-07-27T15:01:20.526Z,51.22
2022-07-27T15:03:56.769Z,51.31
2022-07-27T15:06:23.561Z,51.99
2022-07-27T15:08:50.153Z,52.35
2022-07-27T15:11:16.782Z,52.44
2022-07-27T15:13:43.349Z,52.72
2022-07-27T15:16:11.399Z,52.22
2022-07-27T15:18:39.160Z,51.81
2022-07-27T15:21:13.546Z,52.27
2022-07-27T15:23:43.112Z,53.05
2022-07-27T15:26:09.797Z,53.55
2022-07-27T15:28:36.503Z,54.24
2022-07-27T15:31:03.244Z,53.85
2022-07-27T15:33:29.952Z,53.22
2022-07-27T15:35:56.728Z,53.53
2022-07-27T15:38:23.398Z,53.55
2022-07-27T15:40:50.361Z,53.25
2022-07-27T15:43:18.415Z,53.07
2022-07-27T15:45:48.306Z,53.04
2022-07-27T15:48:16.590Z,53.17
2022-07-27T15:50:45.569Z,53.05
2022-07-27T15:53:14.259Z,54.13
2022-07-27T15:55:42.647Z,54.90
2022-07-27T15:58:10.356Z,54.66
2022-07-27T16:00:40.721Z,54.68
2022-07-27T16:03:08.219Z,54.28
2022-07-27T16:05:34.863Z,55.00
2022-07-27T16:08:01.477Z,56.00
2022-07-27T16:10:29.972Z,57.44
2022-07-27T16:12:57.407Z,57.60
2022-07-27T16:15:42.279Z,58.08
2022-07-27T16:18:09.858Z,56.77
2022-07-27T16:20:36.845Z,55.55
2022-07-27T16:23:03.686Z,55.66
2022-07-27T16:26:02.780Z,55.55
2022-07-27T16:28:30.637Z,55.52
2022-07-27T16:30:57.933Z,55.69
2022-07-27T16:33:25.047Z,56.75
2022-07-27T16:35:51.707Z,55.13
2022-07-27T16:38:18.595Z,54.64
2022-07-27T16:40:45.190Z,54.60
2022-07-27T16:43:11.749Z,54.89
2022-07-27T16:45:38.274Z,55.97
2022-07-27T16:48:04.992Z,55.98
2022-07-27T16:50:31.577Z,56.21
2022-07-27T16:52:58.217Z,56.44
2022-07-27T16:55:27.536Z,58.52
2022-07-27T16:57:54.525Z,60.01
2022-07-27T17:00:21.355Z,61.70
2022-07-27T17:02:47.986Z,62.28
2022-07-27T17:05:14.530Z,62.58
2022-07-27T17:07:42.876Z,63.28
2022-07-27T17:10:10.003Z,63.79
2022-07-27T17:12:39.101Z,64.27
2022-07-27T17:15:06.463Z,66.45
2022-07-27T17:17:33.035Z,66.15
2022-07-27T17:19:59.912Z,67.32
2022-07-27T17:22:26.699Z,67.49
2022-07-27T17:24:53.276Z,67.59
2022-07-27T17:27:19.787Z,68.29
2022-07-27T17:29:46.434Z,68.70
2022-07-27T17:32:13.238Z,68.69
2022-07-27T17:34:41.576Z,69.46
2022-07-27T17:37:08.253Z,70.39
2022-07-27T17:39:35.415Z,70.73
2022-07-27T17:42:02.234Z,70.74
2022-07-27T17:44:28.839Z,70.97
2022-07-27T17:46:55.515Z,69.95
2022-07-27T17:49:22.200Z,69.88
2022-07-27T17:51:48.775Z,69.73
2022-07-27T17:54:15.574Z,69.59
2022-07-27T17:56:42.144Z,69.67
2022-07-27T17:59:27.301Z,69.44
2022-07-27T18:01:56.706Z,69.86
2022-07-27T18:04:23.456Z,70.80
2022-07-27T18:06:50.120Z,71.29
2022-07-27T18:09:17.392Z,71.96
2022-07-27T18:11:44.572Z,72.49
2022-07-27T18:14:11.380Z,72.72
2022-07-27T18:16:40.733Z,72.36
2022-07-27T18:19:08.222Z,71.11
2022-07-27T18:21:35.922Z,70.80
2022-07-27T18:24:03.337Z,71.43
2022-07-27T18:26:29.939Z,72.03
2022-07-27T18:28:57.687Z,72.67
2022-07-27T18:31:24.712Z,72.80
2022-07-27T18:33:54.376Z,73.33
2022-07-27T18:36:21.340Z,73.98
2022-07-27T18:38:49.846Z,74.22
2022-07-27T18:41:19.014Z,74.38
2022-07-27T18:43:51.298Z,74.79
2022-07-27T18:46:21.798Z,75.12
2022-07-27T18:48:49.286Z,75.90
2022-07-27T18:51:16.897Z,75.97
2022-07-27T18:53:46.558Z,75.81
2022-07-27T18:56:13.291Z,76.25
2022-07-27T18:58:40.890Z,75.82
2022-07-27T19:01:09.746Z,75.80
2022-07-27T19:03:36.613Z,76.17
2022-07-27T19:06:03.337Z,76.18
2022-07-27T19:08:30.032Z,76.73
2022-07-27T19:10:56.696Z,76.71
2022-07-27T19:13:23.310Z,76.98
2022-07-27T19:15:49.904Z,77.17
2022-07-27T19:18:16.516Z,77.06
2022-07-27T19:20:43.058Z,77.20
2022-07-27T19:23:09.889Z,77.16
2022-07-27T19:25:36.476Z,77.46
2022-07-27T19:28:04.201Z,77.91
2022-07-27T19:30:30.955Z,78.16
2022-07-27T19:32:57.692Z,77.95
2022-07-27T19:35:24.280Z,78.14
2022-07-27T19:37:51.119Z,78.97
2022-07-27T19:40:43.545Z,79.06
2022-07-27T19:43:07.420Z,79.10
2022-07-27T19:45:35.281Z,79.34
2022-07-27T19:48:05.544Z,79.41
2022-07-27T19:50:32.799Z,79.67
2022-07-27T19:53:00.034Z,79.77
2022-07-27T19:55:26.792Z,79.63
2022-07-27T19:57:53.451Z,79.56
2022-07-27T20:00:20.245Z,79.54
2022-07-27T20:02:48.268Z,79.38
2022-07-27T20:05:14.953Z,79.69
2022-07-27T20:07:41.758Z,79.97
2022-07-27T20:10:08.732Z,79.66
2022-07-27T20:12:35.289Z,79.70
2022-07-27T20:15:02.261Z,79.88
2022-07-27T20:17:29.077Z,80.18
2022-07-27T20:19:55.609Z,80.38
2022-07-27T20:22:22.526Z,80.74
2022-07-27T20:24:49.059Z,80.80
2022-07-27T20:27:15.749Z,81.14
2022-07-27T20:29:42.272Z,81.53
2022-07-27T20:32:08.897Z,81.65
2022-07-27T20:34:35.536Z,81.81
2022-07-27T20:37:02.356Z,81.99
2022-07-27T20:39:28.901Z,82.00
2022-07-27T20:41:55.484Z,82.05
2022-07-27T20:44:22.094Z,81.80
2022-07-27T20:46:48.904Z,81.79
2022-07-27T20:49:17.121Z,82.25
2022-07-27T20:51:44.390Z,82.28
2022-07-27T20:54:11.086Z,82.70
2022-07-27T20:56:37.763Z,82.81
2022-07-27T20:59:08.848Z,83.09
2022-07-27T21:01:43.256Z,83.35
2022-07-27T21:04:10.422Z,83.30
2022-07-27T21:06:36.928Z,83.52
2022-07-27T21:09:03.681Z,83.66
2022-07-27T21:11:30.378Z,84.07
2022-07-27T21:13:56.956Z,84.08
2022-07-27T21:16:23.618Z,85.35
2022-07-27T21:18:50.237Z,85.75
2022-07-27T21:21:16.777Z,85.76
2022-07-27T21:24:02.692Z,85.64
2022-07-27T21:26:29.278Z,85.50
2022-07-27T21:28:56.400Z,85.64
2022-07-27T21:31:23.036Z,85.90
2022-07-27T21:33:50.378Z,86.00
2022-07-27T21:36:17.058Z,85.93
2022-07-27T21:38:43.654Z,86.04
2022-07-27T21:41:10.182Z,86.23
2022-07-27T21:43:36.756Z,86.50
2022-07-27T21:46:03.706Z,86.65
2022-07-27T21:48:30.415Z,86.46
2022-07-27T21:50:56.926Z,86.52
2022-07-27T21:53:23.477Z,86.86
2022-07-27T21:55:50.112Z,87.32
2022-07-27T21:58:16.692Z,87.36
2022-07-27T22:00:43.660Z,87.50
2022-07-27T22:03:10.659Z,87.57
2022-07-27T22:05:37.244Z,87.74
2022-07-27T22:08:03.973Z,88.01
2022-07-27T22:10:31.470Z,87.99
2022-07-27T22:12:58.681Z,88.27
2022-07-27T22:15:26.122Z,88.27
2022-07-27T22:17:52.902Z,88.80
2022-07-27T22:20:20.988Z,88.61
2022-07-27T22:22:48.343Z,88.94
2022-07-27T22:25:15.196Z,89.17
2022-07-27T22:27:41.824Z,89.40
2022-07-27T22:30:09.331Z,89.81
2022-07-27T22:32:35.965Z,90.62
2022-07-27T22:35:02.708Z,90.41
2022-07-27T22:37:29.337Z,90.27
2022-07-27T22:39:55.908Z,90.27
2022-07-27T22:42:22.481Z,90.59
2022-07-27T22:44:49.110Z,90.73
2022-07-27T22:47:15.625Z,90.88
2022-07-27T22:49:42.234Z,90.89
2022-07-27T22:52:08.810Z,91.75
2022-07-27T22:54:36.667Z,92.86
2022-07-27T22:57:04.996Z,93.31
2022-07-27T22:59:32.275Z,93.13
2022-07-27T23:01:58.968Z,93.01
2022-07-27T23:04:25.641Z,93.29
2022-07-27T23:06:52.229Z,94.11
2022-07-27T23:09:18.817Z,94.45
2022-07-27T23:11:45.477Z,94.71
2022-07-27T23:14:12.919Z,94.73
2022-07-27T23:16:39.887Z,94.91
2022-07-27T23:19:06.571Z,95.32
2022-07-27T23:21:33.158Z,94.91
2022-07-27T23:23:59.714Z,94.48
2022-07-27T23:26:27.504Z,94.42
2022-07-27T23:28:54.318Z,94.32
2022-07-27T23:31:22.350Z,94.11
2022-07-27T23:33:49.093Z,94.33
2022-07-27T23:36:15.995Z,94.81
2022-07-27T23:38:42.811Z,95.16
2022-07-27T23:41:09.394Z,94.81
2022-07-27T23:43:36.069Z,94.63
2022-07-27T23:46:04.155Z,94.47
2022-07-27T23:48:30.740Z,94.57
2022-07-27T23:50:57.362Z,94.77
2022-07-27T23:53:24.067Z,94.82
2022-07-27T23:55:50.719Z,94.58
2022-07-27T23:58:17.287Z,94.42
